Time;durP1;ratioP1;P1;durP2;ratioP2;P2;SDS_P1;SDS_P2;PMS_P1;PMS_P2;Temp;Humidity;BMP_temperature;BMP_pressure;BME280_temperature;BME280_humidity;BME280_pressure;Samples;Min_cycle;Max_cycle;Signal;HPM_P1;HPM_P2
2022/07/28 00:00:45;;;;;;;4.28;1.00;;;;;;;;;;5071079;28;20021;-78
2022/07/28 00:03:11;;;;;;;3.28;1.00;;;;;;;;;;5070970;28;20036;-78
2022/07/28 00:05:37;;;;;;;8.25;1.10;;;;;;;;;;5071092;28;20032;-78
2022/07/28 00:08:04;;;;;;;5.07;0.90;;;;;;;;;;5074683;28;20025;-78
2022/07/28 00:10:31;;;;;;;3.28;1.10;;;;;;;;;;5074462;28;20024;-78
2022/07/28 00:12:58;;;;;;;3.58;1.35;;;;;;;;;;5074276;28;20020;-78
2022/07/28 00:15:24;;;;;;;3.70;1.10;;;;;;;;;;5074309;28;20108;-78
2022/07/28 00:17:50;;;;;;;5.82;1.23;;;;;;;;;;5074180;28;20024;-78
2022/07/28 00:20:16;;;;;;;2.80;0.80;;;;;;;;;;5074249;28;20031;-78
2022/07/28 00:22:43;;;;;;;2.42;0.98;;;;;;;;;;5074250;28;20028;-78
2022/07/28 00:25:09;;;;;;;8.90;1.02;;;;;;;;;;5074233;28;20505;-78
2022/07/28 00:27:35;;;;;;;3.50;1.00;;;;;;;;;;5074103;28;20060;-78
2022/07/28 00:30:01;;;;;;;5.05;1.10;;;;;;;;;;5073986;28;20413;-78
2022/07/28 00:32:27;;;;;;;6.13;1.10;;;;;;;;;;5073741;28;20451;-78
2022/07/28 00:34:53;;;;;;;7.45;1.23;;;;;;;;;;5073733;28;20039;-78
2022/07/28 00:37:19;;;;;;;6.25;1.25;;;;;;;;;;5073812;28;20032;-78
2022/07/28 00:39:45;;;;;;;2.70;1.17;;;;;;;;;;5073848;28;20027;-78
2022/07/28 00:42:11;;;;;;;4.47;1.10;;;;;;;;;;5073669;28;20037;-78
2022/07/28 00:44:40;;;;;;;1.65;0.95;;;;;;;;;;5073816;28;20025;-78
2022/07/28 00:47:06;;;;;;;6.60;1.10;;;;;;;;;;5073746;28;20012;-78
2022/07/28 00:49:32;;;;;;;1.42;0.73;;;;;;;;;;5073740;28;20333;-78
2022/07/28 00:51:58;;;;;;;4.70;1.05;;;;;;;;;;5073796;28;20033;-78
2022/07/28 00:54:24;;;;;;;3.50;1.00;;;;;;;;;;5073561;28;20032;-78
2022/07/28 00:56:50;;;;;;;6.50;1.10;;;;;;;;;;5073791;28;20100;-78
2022/07/28 00:59:17;;;;;;;9.45;1.45;;;;;;;;;;5073501;28;20431;-78
2022/07/28 01:01:43;;;;;;;2.20;0.70;;;;;;;;;;5073417;28;20029;-78
2022/07/28 01:04:09;;;;;;;3.58;1.30;;;;;;;;;;5073539;28;20031;-78
2022/07/28 01:06:38;;;;;;;5.32;1.10;;;;;;;;;;5073345;28;20024;-78
2022/07/28 01:09:10;;;;;;;4.25;1.42;;;;;;;;;;5073581;28;20116;-78
2022/07/28 01:11:36;;;;;;;7.25;1.20;;;;;;;;;;5063589;28;20044;-78
2022/07/28 01:14:09;;;;;;;2.47;1.20;;;;;;;;;;5053408;28;20447;-78
2022/07/28 01:16:43;;;;;;;3.30;1.50;;;;;;;;;;5052902;28;20021;-78
2022/07/28 01:19:15;;;;;;;5.40;1.27;;;;;;;;;;5053305;28;20456;-78
2022/07/28 01:21:42;;;;;;;4.50;1.13;;;;;;;;;;5053245;28;20021;-78
2022/07/28 01:24:18;;;;;;;3.75;1.20;;;;;;;;;;5053270;28;20395;-78
2022/07/28 01:26:56;;;;;;;2.85;1.20;;;;;;;;;;5053079;28;20044;-78
2022/07/28 01:29:36;;;;;;;5.88;1.20;;;;;;;;;;5053007;28;20108;-78
2022/07/28 01:32:12;;;;;;;6.22;1.30;;;;;;;;;;5052973;28;20025;-78
2022/07/28 01:34:48;;;;;;;5.05;1.30;;;;;;;;;;5070309;28;20033;-78
2022/07/28 01:37:18;;;;;;;3.53;1.13;;;;;;;;;;5072787;28;20029;-78
2022/07/28 01:39:44;;;;;;;2.70;1.17;;;;;;;;;;5072739;28;20031;-78
2022/07/28 01:42:13;;;;;;;2.80;1.10;;;;;;;;;;5072678;28;20044;-78
2022/07/28 01:44:41;;;;;;;6.20;1.35;;;;;;;;;;5072672;28;20032;-78
2022/07/28 01:47:08;;;;;;;3.30;1.17;;;;;;;;;;5072540;28;20028;-78
2022/07/28 01:49:35;;;;;;;4.15;1.20;;;;;;;;;;5072405;28;20371;-78
2022/07/28 01:52:02;;;;;;;4.05;1.48;;;;;;;;;;5072686;28;20013;-78
2022/07/28 01:54:30;;;;;;;2.65;1.27;;;;;;;;;;5072419;28;20052;-78
2022/07/28 01:56:56;;;;;;;4.13;1.27;;;;;;;;;;5072495;28;20024;-78
2022/07/28 01:59:23;;;;;;;3.45;1.13;;;;;;;;;;5072303;28;20039;-78
2022/07/28 02:01:49;;;;;;;7.55;1.98;;;;;;;;;;5072228;28;20020;-78
2022/07/28 02:04:17;;;;;;;3.33;1.38;;;;;;;;;;5072367;28;20021;-77
2022/07/28 02:06:43;;;;;;;8.45;1.63;;;;;;;;;;5072260;28;20029;-78
2022/07/28 02:09:10;;;;;;;2.47;1.27;;;;;;;;;;5072349;28;20029;-78
2022/07/28 02:11:39;;;;;;;2.35;1.30;;;;;;;;;;5072076;28;20032;-78
2022/07/28 02:14:16;;;;;;;7.05;1.80;;;;;;;;;;5072167;28;20434;-78
2022/07/28 02:16:47;;;;;;;4.30;1.40;;;;;;;;;;5072036;28;20096;-78
2022/07/28 02:19:13;;;;;;;7.05;1.80;;;;;;;;;;5070768;28;20028;-78
2022/07/28 02:21:40;;;;;;;3.72;1.48;;;;;;;;;;5072150;28;20017;-78
2022/07/28 02:24:07;;;;;;;6.22;1.20;;;;;;;;;;5072026;28;20471;-78
2022/07/28 02:26:35;;;;;;;6.53;2.00;;;;;;;;;;5071783;28;20043;-77
2022/07/28 02:29:02;;;;;;;6.95;1.70;;;;;;;;;;5071350;28;20078;-78
2022/07/28 02:31:39;;;;;;;4.68;1.42;;;;;;;;;;5071734;28;20462;-78
2022/07/28 02:34:06;;;;;;;6.22;1.52;;;;;;;;;;5071818;28;20501;-78
2022/07/28 02:36:38;;;;;;;5.32;1.70;;;;;;;;;;5070352;28;20029;-78
2022/07/28 02:39:08;;;;;;;4.03;1.73;;;;;;;;;;5071890;28;20025;-78
2022/07/28 02:41:43;;;;;;;5.50;1.70;;;;;;;;;;5071657;28;20027;-77
2022/07/28 02:44:15;;;;;;;5.15;1.70;;;;;;;;;;5071710;28;20036;-78
2022/07/28 02:46:43;;;;;;;2.53;1.50;;;;;;;;;;5071599;28;20032;-78
2022/07/28 02:49:12;;;;;;;3.67;1.65;;;;;;;;;;5071607;28;20036;-78
2022/07/28 02:51:40;;;;;;;5.95;1.95;;;;;;;;;;5069960;28;20078;-78
2022/07/28 02:54:06;;;;;;;4.72;1.85;;;;;;;;;;5071501;28;20024;-78
2022/07/28 02:56:33;;;;;;;8.93;2.20;;;;;;;;;;5071222;28;20500;-78
2022/07/28 02:58:59;;;;;;;6.20;1.65;;;;;;;;;;5071658;28;20159;-78
2022/07/28 03:01:25;;;;;;;3.35;1.42;;;;;;;;;;5071432;28;20260;-78
2022/07/28 03:03:52;;;;;;;6.78;1.60;;;;;;;;;;5071620;28;20036;-78
2022/07/28 03:06:21;;;;;;;5.55;1.60;;;;;;;;;;5071434;28;20458;-78
2022/07/28 03:08:49;;;;;;;6.28;1.42;;;;;;;;;;5071655;28;20024;-78
2022/07/28 03:11:15;;;;;;;4.45;1.60;;;;;;;;;;5071147;28;20020;-78
2022/07/28 03:13:41;;;;;;;8.30;1.63;;;;;;;;;;5071539;28;20056;-78
2022/07/28 03:16:08;;;;;;;5.18;1.83;;;;;;;;;;5070988;28;20021;-78
2022/07/28 03:18:34;;;;;;;7.07;1.50;;;;;;;;;;5071491;28;20516;-78
2022/07/28 03:21:00;;;;;;;4.43;1.52;;;;;;;;;;5071467;28;20135;-78
2022/07/28 03:23:29;;;;;;;6.35;1.80;;;;;;;;;;5071279;28;20482;-78
2022/07/28 03:26:00;;;;;;;7.13;1.70;;;;;;;;;;5071407;28;20047;-78
2022/07/28 03:28:26;;;;;;;5.03;1.30;;;;;;;;;;5071333;28;20032;-78
2022/07/28 03:30:57;;;;;;;7.88;3.08;;;;;;;;;;5071390;28;20386;-78
2022/07/28 03:33:24;;;;;;;4.85;1.83;;;;;;;;;;5071148;28;20024;-78
2022/07/28 03:35:51;;;;;;;6.05;1.70;;;;;;;;;;5071143;28;20074;-78
2022/07/28 03:38:22;;;;;;;5.25;1.52;;;;;;;;;;5071365;28;20073;-78
2022/07/28 03:40:48;;;;;;;5.55;2.00;;;;;;;;;;5071728;28;20021;-78
2022/07/28 03:43:18;;;;;;;8.52;1.67;;;;;;;;;;5074889;28;20049;-78
2022/07/28 03:45:46;;;;;;;5.28;1.75;;;;;;;;;;5074847;28;20027;-78
2022/07/28 03:48:13;;;;;;;4.88;1.58;;;;;;;;;;5074777;28;20024;-78
2022/07/28 03:50:40;;;;;;;6.93;1.80;;;;;;;;;;5060444;28;20025;-78
2022/07/28 03:53:10;;;;;;;12.88;1.88;;;;;;;;;;5055028;28;20104;-78
2022/07/28 03:55:36;;;;;;;7.00;1.63;;;;;;;;;;5054885;28;20071;-78
2022/07/28 03:58:02;;;;;;;6.93;1.98;;;;;;;;;;5054943;28;20073;-78
2022/07/28 04:00:28;;;;;;;4.32;1.58;;;;;;;;;;5054425;28;20021;-78
2022/07/28 04:02:54;;;;;;;7.10;1.58;;;;;;;;;;5054601;28;20033;-78
2022/07/28 04:05:20;;;;;;;11.43;1.88;;;;;;;;;;5054578;28;20044;-78
2022/07/28 04:07:46;;;;;;;3.95;1.73;;;;;;;;;;5062213;28;20035;-78
2022/07/28 04:10:13;;;;;;;7.93;1.92;;;;;;;;;;5074501;28;20036;-78
2022/07/28 04:12:46;;;;;;;5.60;1.60;;;;;;;;;;5074363;28;20447;-78
2022/07/28 04:15:13;;;;;;;9.35;1.70;;;;;;;;;;5072891;28;20032;-78
2022/07/28 04:17:39;;;;;;;7.03;1.60;;;;;;;;;;5074240;28;20035;-78
2022/07/28 04:20:06;;;;;;;5.15;1.70;;;;;;;;;;5074401;28;20034;-78
2022/07/28 04:22:32;;;;;;;3.95;1.45;;;;;;;;;;5074313;28;20024;-78
2022/07/28 04:24:58;;;;;;;4.68;1.58;;;;;;;;;;5074195;28;20056;-78
2022/07/28 04:27:24;;;;;;;4.05;1.45;;;;;;;;;;5074108;28;20031;-77
2022/07/28 04:29:50;;;;;;;4.90;1.50;;;;;;;;;;5074053;28;20039;-78
2022/07/28 04:32:16;;;;;;;2.80;1.35;;;;;;;;;;5074063;28;20028;-78
2022/07/28 04:34:42;;;;;;;3.65;1.23;;;;;;;;;;5073934;28;20032;-78
2022/07/28 04:37:08;;;;;;;6.60;1.70;;;;;;;;;;5072667;28;20402;-78
2022/07/28 04:39:34;;;;;;;6.60;1.90;;;;;;;;;;5073802;28;20024;-78
2022/07/28 04:42:01;;;;;;;4.20;1.25;;;;;;;;;;5073788;28;20060;-78
2022/07/28 04:44:27;;;;;;;3.88;1.50;;;;;;;;;;5073823;28;20412;-78
2022/07/28 04:46:53;;;;;;;5.53;1.50;;;;;;;;;;5073854;28;20029;-78
2022/07/28 04:49:19;;;;;;;3.55;1.23;;;;;;;;;;5073640;28;20032;-78
2022/07/28 04:51:49;;;;;;;3.25;1.27;;;;;;;;;;5073389;28;20024;-78
2022/07/28 04:54:15;;;;;;;4.63;1.40;;;;;;;;;;5073508;28;20024;-78
2022/07/28 04:56:41;;;;;;;3.95;1.35;;;;;;;;;;5073510;28;20059;-78
2022/07/28 04:59:07;;;;;;;4.05;1.40;;;;;;;;;;5073679;28;20032;-75
2022/07/28 05:01:37;;;;;;;6.28;1.17;;;;;;;;;;5073338;28;20024;-76
2022/07/28 05:04:03;;;;;;;6.57;1.73;;;;;;;;;;5073695;28;20062;-77
2022/07/28 05:06:29;;;;;;;5.68;1.58;;;;;;;;;;5073337;28;20475;-78
2022/07/28 05:08:55;;;;;;;3.95;1.33;;;;;;;;;;5073344;28;20033;-78
2022/07/28 05:11:21;;;;;;;9.13;2.17;;;;;;;;;;5072738;28;20078;-78
2022/07/28 05:13:47;;;;;;;5.25;1.52;;;;;;;;;;5071880;28;20085;-78
2022/07/28 05:16:13;;;;;;;7.95;1.73;;;;;;;;;;5073013;28;20025;-76
2022/07/28 05:18:39;;;;;;;4.90;1.42;;;;;;;;;;5073232;28;20433;-76
2022/07/28 05:21:06;;;;;;;4.18;1.00;;;;;;;;;;5073027;28;20078;-76
2022/07/28 05:23:32;;;;;;;7.07;1.23;;;;;;;;;;5073183;28;20036;-78
2022/07/28 05:25:58;;;;;;;5.50;1.25;;;;;;;;;;5073030;28;20036;-78
2022/07/28 05:28:24;;;;;;;3.50;1.27;;;;;;;;;;5072895;28;20035;-78
2022/07/28 05:30:50;;;;;;;5.13;1.88;;;;;;;;;;5072942;28;20032;-78
2022/07/28 05:33:16;;;;;;;6.95;1.60;;;;;;;;;;5071309;28;20039;-78
2022/07/28 05:35:43;;;;;;;7.13;1.85;;;;;;;;;;5072722;28;20020;-78
2022/07/28 05:38:09;;;;;;;4.35;1.50;;;;;;;;;;5072921;28;20025;-78
2022/07/28 05:40:36;;;;;;;6.55;1.30;;;;;;;;;;5072517;28;20479;-78
2022/07/28 05:43:02;;;;;;;4.90;1.42;;;;;;;;;;5072543;28;20057;-78
2022/07/28 05:45:28;;;;;;;3.97;1.50;;;;;;;;;;5072584;28;20039;-77
2022/07/28 05:47:54;;;;;;;6.65;1.48;;;;;;;;;;5071135;28;20036;-78
2022/07/28 05:50:21;;;;;;;5.07;1.63;;;;;;;;;;5072351;28;20029;-78
2022/07/28 05:52:48;;;;;;;6.07;1.30;;;;;;;;;;5072541;28;20037;-78
2022/07/28 05:55:14;;;;;;;5.45;1.45;;;;;;;;;;5072473;28;20021;-78
2022/07/28 05:57:40;;;;;;;3.50;1.35;;;;;;;;;;5072268;28;20443;-78
2022/07/28 06:00:11;;;;;;;6.65;1.48;;;;;;;;;;5072423;28;20425;-78
2022/07/28 06:02:37;;;;;;;6.43;1.20;;;;;;;;;;5072381;28;20032;-78
2022/07/28 06:05:05;;;;;;;2.03;1.10;;;;;;;;;;5071618;28;20528;-78
2022/07/28 06:07:31;;;;;;;7.35;1.48;;;;;;;;;;5072242;28;20020;-78
2022/07/28 06:09:57;;;;;;;2.47;1.00;;;;;;;;;;5072238;28;20032;-78
2022/07/28 06:12:23;;;;;;;4.10;1.20;;;;;;;;;;5070499;28;20432;-78
2022/07/28 06:14:49;;;;;;;5.68;1.20;;;;;;;;;;5072164;28;20360;-78
2022/07/28 06:17:15;;;;;;;5.50;1.13;;;;;;;;;;5071929;28;20386;-78
2022/07/28 06:19:42;;;;;;;3.72;1.02;;;;;;;;;;5072162;28;20025;-78
2022/07/28 06:22:09;;;;;;;4.43;1.10;;;;;;;;;;5072166;28;20021;-78
2022/07/28 06:24:35;;;;;;;19.98;2.25;;;;;;;;;;5071698;28;20367;-78
2022/07/28 06:27:01;;;;;;;15.57;3.45;;;;;;;;;;5071893;28;20046;-78
2022/07/28 06:29:28;;;;;;;6.82;1.52;;;;;;;;;;5071636;28;20044;-78
2022/07/28 06:31:54;;;;;;;4.55;1.00;;;;;;;;;;5070611;28;20032;-78
2022/07/28 06:34:20;;;;;;;4.85;1.00;;;;;;;;;;5070980;28;20513;-78
2022/07/28 06:36:46;;;;;;;4.32;1.45;;;;;;;;;;5071367;28;20020;-78
2022/07/28 06:39:12;;;;;;;5.88;1.65;;;;;;;;;;5071437;28;20020;-78
2022/07/28 06:41:42;;;;;;;4.03;1.33;;;;;;;;;;5071105;28;20035;-78
2022/07/28 06:44:08;;;;;;;3.00;0.80;;;;;;;;;;5071420;28;20402;-78
2022/07/28 06:46:34;;;;;;;6.18;1.13;;;;;;;;;;5070945;28;20340;-78
2022/07/28 06:49:00;;;;;;;5.40;1.20;;;;;;;;;;5071253;28;20036;-78
2022/07/28 06:51:26;;;;;;;7.07;0.77;;;;;;;;;;5070950;28;20031;-78
2022/07/28 06:53:54;;;;;;;5.55;0.90;;;;;;;;;;5071238;28;20090;-78
2022/07/28 06:56:20;;;;;;;4.25;0.70;;;;;;;;;;5070611;28;20025;-78
2022/07/28 06:58:46;;;;;;;2.90;1.00;;;;;;;;;;5070984;28;20012;-78
2022/07/28 07:01:13;;;;;;;5.25;1.38;;;;;;;;;;5070815;28;20434;-78
2022/07/28 07:03:41;;;;;;;7.03;0.90;;;;;;;;;;5070765;28;20021;-78
2022/07/28 07:06:07;;;;;;;4.25;0.80;;;;;;;;;;5068300;28;20024;-78
2022/07/28 07:08:33;;;;;;;4.47;0.80;;;;;;;;;;5070628;28;20017;-78
2022/07/28 07:10:59;;;;;;;3.20;0.93;;;;;;;;;;5070834;28;20028;-78
2022/07/28 07:13:26;;;;;;;4.00;0.80;;;;;;;;;;5070894;28;20028;-78
2022/07/28 07:15:52;;;;;;;5.43;0.80;;;;;;;;;;5072480;28;20023;-78
2022/07/28 07:18:18;;;;;;;5.72;1.05;;;;;;;;;;5074522;28;20812;-78
2022/07/28 07:20:44;;;;;;;5.47;0.85;;;;;;;;;;5074043;28;20024;-78
2022/07/28 07:23:10;;;;;;;4.05;0.70;;;;;;;;;;5072561;28;20347;-78
2022/07/28 07:25:36;;;;;;;3.40;0.70;;;;;;;;;;5073851;28;20494;-78
2022/07/28 07:28:02;;;;;;;2.50;0.60;;;;;;;;;;5073737;28;20056;-78
2022/07/28 07:30:28;;;;;;;7.57;0.70;;;;;;;;;;5073574;28;20352;-78
2022/07/28 07:32:54;;;;;;;5.18;0.60;;;;;;;;;;5073813;28;20463;-78
2022/07/28 07:35:20;;;;;;;2.58;0.68;;;;;;;;;;5073767;28;20063;-78
2022/07/28 07:37:46;;;;;;;4.85;0.50;;;;;;;;;;5074120;28;20524;-77
2022/07/28 07:40:12;;;;;;;4.60;1.20;;;;;;;;;;5074094;28;20360;-78
2022/07/28 07:42:38;;;;;;;7.03;0.90;;;;;;;;;;5074395;28;20041;-78
2022/07/28 07:45:05;;;;;;;5.20;1.00;;;;;;;;;;5074295;28;20028;-78
2022/07/28 07:47:31;;;;;;;3.20;0.70;;;;;;;;;;5073962;28;20029;-78
2022/07/28 07:49:57;;;;;;;4.57;0.70;;;;;;;;;;5073798;28;20029;-78
2022/07/28 07:52:23;;;;;;;32.70;4.30;;;;;;;;;;5074154;28;20016;-78
2022/07/28 07:54:49;;;;;;;3.13;0.70;;;;;;;;;;5073962;28;20551;-77
2022/07/28 07:57:15;;;;;;;2.58;0.60;;;;;;;;;;5073757;28;20111;-77
2022/07/28 07:59:41;;;;;;;3.78;0.70;;;;;;;;;;5073673;28;20494;-77
2022/07/28 08:02:07;;;;;;;1.60;0.40;;;;;;;;;;5071434;28;20037;-76
2022/07/28 08:04:33;;;;;;;3.42;0.60;;;;;;;;;;5073343;28;20051;-77
2022/07/28 08:06:59;;;;;;;3.85;0.60;;;;;;;;;;5073992;28;20028;-78
2022/07/28 08:09:25;;;;;;;2.88;0.60;;;;;;;;;;5075739;28;20075;-79
2022/07/28 08:11:51;;;;;;;3.20;0.70;;;;;;;;;;5076518;28;20091;-78
2022/07/28 08:14:17;;;;;;;1.80;0.63;;;;;;;;;;5074983;28;20020;-80
2022/07/28 08:16:43;;;;;;;4.20;0.70;;;;;;;;;;5075079;28;20028;-79
2022/07/28 08:19:09;;;;;;;4.82;0.65;;;;;;;;;;5074504;28;20025;-78
2022/07/28 08:21:35;;;;;;;1.70;0.45;;;;;;;;;;5074396;28;20024;-78
2022/07/28 08:24:02;;;;;;;1.33;0.52;;;;;;;;;;5074522;28;20108;-80
2022/07/28 08:26:28;;;;;;;2.00;0.60;;;;;;;;;;5074100;28;20202;-83
2022/07/28 08:28:54;;;;;;;1.67;0.55;;;;;;;;;;5066967;28;20375;-81
2022/07/28 08:31:21;;;;;;;2.10;0.45;;;;;;;;;;5058133;28;20024;-83
2022/07/28 08:33:48;;;;;;;2.72;0.50;;;;;;;;;;5075254;28;20033;-83
2022/07/28 08:36:14;;;;;;;2.85;0.55;;;;;;;;;;5073660;28;20104;-82
2022/07/28 08:38:40;;;;;;;2.78;0.32;;;;;;;;;;5074947;28;20028;-81
2022/07/28 08:41:08;;;;;;;2.15;0.65;;;;;;;;;;5075026;28;20020;-82
2022/07/28 08:43:39;;;;;;;3.38;0.50;;;;;;;;;;5073449;28;20059;-81
2022/07/28 08:46:05;;;;;;;3.20;0.68;;;;;;;;;;5074875;28;20021;-78
2022/07/28 08:48:33;;;;;;;1.25;0.52;;;;;;;;;;5073606;28;20040;-79
2022/07/28 08:51:12;;;;;;;3.22;0.80;;;;;;;;;;5074686;28;20033;-79
2022/07/28 08:53:39;;;;;;;6.20;0.82;;;;;;;;;;5074350;28;20031;-79
2022/07/28 08:56:06;;;;;;;28.55;2.92;;;;;;;;;;5074455;28;20523;-79
2022/07/28 08:58:32;;;;;;;4.57;0.80;;;;;;;;;;5074458;28;20024;-79
2022/07/28 09:00:58;;;;;;;2.78;0.65;;;;;;;;;;5074834;28;20244;-79
2022/07/28 09:03:25;;;;;;;2.80;0.60;;;;;;;;;;5073387;28;20016;-79
2022/07/28 09:05:52;;;;;;;1.88;0.50;;;;;;;;;;5074738;28;20021;-80
2022/07/28 09:08:18;;;;;;;2.17;0.60;;;;;;;;;;5074189;28;20029;-80
2022/07/28 09:10:44;;;;;;;0.95;0.55;;;;;;;;;;5074066;28;20021;-80
2022/07/28 09:13:10;;;;;;;5.30;0.82;;;;;;;;;;5072772;28;20490;-80
2022/07/28 09:15:37;;;;;;;2.33;0.52;;;;;;;;;;5074254;28;20024;-79
2022/07/28 09:18:03;;;;;;;10.02;0.75;;;;;;;;;;5074337;28;20027;-79
2022/07/28 09:20:29;;;;;;;1.60;0.57;;;;;;;;;;5074210;28;20109;-79
2022/07/28 09:23:00;;;;;;;1.58;0.43;;;;;;;;;;5072914;28;20028;-79
2022/07/28 09:25:27;;;;;;;1.65;0.60;;;;;;;;;;5073953;28;20024;-79
2022/07/28 09:27:54;;;;;;;1.52;0.50;;;;;;;;;;5074196;28;20490;-79
2022/07/28 09:30:27;;;;;;;4.35;0.50;;;;;;;;;;5073770;28;20523;-83
2022/07/28 09:33:10;;;;;;;1.95;0.45;;;;;;;;;;5073489;28;20035;-81
2022/07/28 09:35:42;;;;;;;4.75;0.57;;;;;;;;;;5072869;28;20081;-82
2022/07/28 09:38:08;;;;;;;3.42;0.50;;;;;;;;;;5074105;28;20111;-80
2022/07/28 09:40:34;;;;;;;2.95;0.90;;;;;;;;;;5069179;28;20044;-80
2022/07/28 09:43:00;;;;;;;1.73;0.57;;;;;;;;;;5072301;28;20044;-79
2022/07/28 09:45:26;;;;;;;3.40;0.70;;;;;;;;;;5073704;28;20016;-77
2022/07/28 09:48:09;;;;;;;2.90;0.55;;;;;;;;;;5071824;28;20420;-80
2022/07/28 09:50:35;;;;;;;1.40;0.35;;;;;;;;;;5061846;28;20108;-85
2022/07/28 09:53:19;;;;;;;1.15;0.40;;;;;;;;;;5073549;28;20086;-80
2022/07/28 09:55:56;;;;;;;4.97;0.82;;;;;;;;;;5073846;28;20024;-80
2022/07/28 09:58:22;;;;;;;1.35;0.55;;;;;;;;;;5073560;28;20024;-81
2022/07/28 10:00:48;;;;;;;3.05;0.40;;;;;;;;;;5073639;28;20370;-80
2022/07/28 10:03:24;;;;;;;2.88;0.40;;;;;;;;;;5073716;28;20080;-78
2022/07/28 10:05:50;;;;;;;4.32;0.50;;;;;;;;;;5070516;28;20052;-78
2022/07/28 10:08:16;;;;;;;2.80;0.45;;;;;;;;;;5068665;28;20029;-80
2022/07/28 10:10:42;;;;;;;1.80;0.70;;;;;;;;;;5053929;28;20021;-79
2022/07/28 10:13:08;;;;;;;2.20;0.70;;;;;;;;;;5063925;28;20024;-79
2022/07/28 10:18:19;;;;;;;4.68;0.60;;;;;;;;;;5066774;28;20068;-78
2022/07/28 10:20:45;;;;;;;3.30;0.70;;;;;;;;;;5061684;28;20024;-82
2022/07/28 10:23:12;;;;;;;4.75;1.00;;;;;;;;;;5071945;28;20052;-82
2022/07/28 10:25:39;;;;;;;4.50;2.47;;;;;;;;;;5072949;28;20066;-81
2022/07/28 10:28:06;;;;;;;3.10;1.17;;;;;;;;;;5073160;28;20053;-82
2022/07/28 10:30:37;;;;;;;3.45;1.20;;;;;;;;;;5071501;28;20029;-81
2022/07/28 10:33:08;;;;;;;1.92;0.57;;;;;;;;;;5061077;28;20029;-83
2022/07/28 10:35:35;;;;;;;4.78;0.90;;;;;;;;;;5053038;28;20032;-82
2022/07/28 10:38:11;;;;;;;2.17;0.52;;;;;;;;;;5053272;28;20017;-80
2022/07/28 10:40:41;;;;;;;1.77;0.50;;;;;;;;;;5060447;28;20167;-80
2022/07/28 10:43:08;;;;;;;2.85;0.77;;;;;;;;;;5071331;28;20135;-80
2022/07/28 10:45:35;;;;;;;3.05;0.40;;;;;;;;;;5071476;28;20036;-81
2022/07/28 10:48:04;;;;;;;2.08;0.50;;;;;;;;;;5073130;28;20481;-81
2022/07/28 10:50:30;;;;;;;4.85;0.70;;;;;;;;;;5072575;28;20020;-81
2022/07/28 10:52:57;;;;;;;2.55;0.57;;;;;;;;;;5072882;28;20042;-81
2022/07/28 10:55:29;;;;;;;2.60;0.60;;;;;;;;;;5070399;28;20111;-78
2022/07/28 10:58:14;;;;;;;1.80;0.30;;;;;;;;;;5071045;28;20470;-78
2022/07/28 11:00:46;;;;;;;1.63;0.85;;;;;;;;;;5072810;28;20032;-80
2022/07/28 11:03:32;;;;;;;3.35;0.55;;;;;;;;;;5071205;28;20070;-81
2022/07/28 11:05:58;;;;;;;2.47;0.50;;;;;;;;;;5057910;28;20029;-84
2022/07/28 11:08:28;;;;;;;1.08;0.40;;;;;;;;;;5052645;28;20036;-80
2022/07/28 11:10:55;;;;;;;0.65;0.40;;;;;;;;;;5052562;28;20025;-82
2022/07/28 11:13:31;;;;;;;2.30;0.60;;;;;;;;;;5052117;28;20458;-83
2022/07/28 11:16:18;;;;;;;3.92;0.75;;;;;;;;;;5053012;28;20360;-80
2022/07/28 11:19:04;;;;;;;2.15;0.50;;;;;;;;;;5052772;28;20096;-79
2022/07/28 11:21:30;;;;;;;1.90;0.52;;;;;;;;;;5052661;28;20354;-81
2022/07/28 11:23:57;;;;;;;0.73;0.47;;;;;;;;;;5053702;28;20107;-83
2022/07/28 11:26:23;;;;;;;9.43;1.40;;;;;;;;;;5053160;28;20024;-83
2022/07/28 11:29:12;;;;;;;0.73;0.32;;;;;;;;;;5052994;28;20033;-84
2022/07/28 11:31:46;;;;;;;1.92;0.43;;;;;;;;;;5052620;28;20039;-86
2022/07/28 11:34:13;;;;;;;2.17;0.63;;;;;;;;;;5052312;28;20029;-83
2022/07/28 11:36:58;;;;;;;19.25;2.10;;;;;;;;;;5068470;28;20036;-83
2022/07/28 11:39:25;;;;;;;2.90;0.57;;;;;;;;;;5072070;28;20096;-84
2022/07/28 11:41:51;;;;;;;3.30;0.60;;;;;;;;;;5072307;28;20032;-85
2022/07/28 11:44:27;;;;;;;2.97;0.60;;;;;;;;;;5071163;28;20068;-86
2022/07/28 11:46:53;;;;;;;1.33;0.43;;;;;;;;;;5071769;28;20138;-75
2022/07/28 11:49:21;;;;;;;2.00;0.90;;;;;;;;;;5071789;28;20028;-88
2022/07/28 11:52:06;;;;;;;2.10;0.40;;;;;;;;;;5072019;28;20025;-87
2022/07/28 11:54:32;;;;;;;1.60;0.40;;;;;;;;;;5072071;28;20025;-88
2022/07/28 11:56:58;;;;;;;1.05;0.40;;;;;;;;;;5068083;28;20021;-85
2022/07/28 11:59:24;;;;;;;2.40;0.65;;;;;;;;;;5059223;28;20498;-84
2022/07/28 12:01:51;;;;;;;3.70;0.50;;;;;;;;;;5051173;28;20021;-82
2022/07/28 12:04:18;;;;;;;2.55;0.60;;;;;;;;;;5054240;28;20459;-81
2022/07/28 12:06:45;;;;;;;4.43;0.70;;;;;;;;;;5064083;28;20020;-84
2022/07/28 12:09:12;;;;;;;11.90;1.40;;;;;;;;;;5075754;28;20087;-83
2022/07/28 12:11:42;;;;;;;2.20;0.60;;;;;;;;;;5075602;28;20032;-83
2022/07/28 12:14:09;;;;;;;2.83;0.60;;;;;;;;;;5075403;28;20128;-82
2022/07/28 12:16:36;;;;;;;3.47;0.57;;;;;;;;;;5075302;28;20027;-83
2022/07/28 12:19:03;;;;;;;4.72;0.95;;;;;;;;;;5073737;28;20474;-84
2022/07/28 12:21:38;;;;;;;1.77;0.60;;;;;;;;;;5075239;28;20021;-83
2022/07/28 12:24:05;;;;;;;1.00;0.47;;;;;;;;;;5075236;28;20044;-83
2022/07/28 12:26:35;;;;;;;2.40;0.57;;;;;;;;;;5075133;28;20401;-82
2022/07/28 12:29:01;;;;;;;5.32;0.60;;;;;;;;;;5075335;28;20025;-83
2022/07/28 12:31:36;;;;;;;2.35;0.60;;;;;;;;;;5075075;28;20028;-82
2022/07/28 12:34:05;;;;;;;4.20;1.25;;;;;;;;;;5073979;28;20028;-82
2022/07/28 12:36:31;;;;;;;2.50;0.70;;;;;;;;;;5075302;28;20017;-83
2022/07/28 12:38:59;;;;;;;1.35;0.60;;;;;;;;;;5075144;28;20112;-84
2022/07/28 12:41:30;;;;;;;1.70;0.50;;;;;;;;;;5075131;28;20021;-83
2022/07/28 12:43:57;;;;;;;1.70;0.47;;;;;;;;;;5074951;28;20052;-84
2022/07/28 12:46:24;;;;;;;2.15;0.52;;;;;;;;;;5058782;28;20103;-84
2022/07/28 12:48:51;;;;;;;3.17;0.50;;;;;;;;;;5053904;28;20056;-83
2022/07/28 12:51:36;;;;;;;2.95;0.50;;;;;;;;;;5052202;28;20025;-83
2022/07/28 12:54:07;;;;;;;2.65;0.50;;;;;;;;;;5053552;28;20021;-83
2022/07/28 12:56:48;;;;;;;37.17;3.70;;;;;;;;;;5053380;28;20114;-83
2022/07/28 12:59:14;;;;;;;9.57;1.13;;;;;;;;;;5051942;28;20433;-83
2022/07/28 13:01:47;;;;;;;4.15;0.63;;;;;;;;;;5054101;28;20032;-83
2022/07/28 13:04:13;;;;;;;1.42;0.40;;;;;;;;;;5054786;28;20028;-83
2022/07/28 13:06:40;;;;;;;3.03;0.75;;;;;;;;;;5054222;28;20041;-84
2022/07/28 13:09:07;;;;;;;2.15;0.70;;;;;;;;;;5054366;28;20025;-83
2022/07/28 13:11:33;;;;;;;2.70;0.60;;;;;;;;;;5066372;28;20029;-83
2022/07/28 13:13:59;;;;;;;1.63;0.63;;;;;;;;;;5073937;28;20032;-83
2022/07/28 13:16:26;;;;;;;5.78;0.98;;;;;;;;;;5073877;28;20035;-83
2022/07/28 13:18:54;;;;;;;3.30;0.60;;;;;;;;;;5074222;28;20486;-82
2022/07/28 13:21:40;;;;;;;1.50;0.60;;;;;;;;;;5074071;28;20458;-83
2022/07/28 13:24:06;;;;;;;1.42;0.50;;;;;;;;;;5074021;28;20389;-83
2022/07/28 13:26:32;;;;;;;2.65;0.63;;;;;;;;;;5073991;28;20020;-83
2022/07/28 13:29:04;;;;;;;2.25;0.50;;;;;;;;;;5074610;28;20459;-83
2022/07/28 13:31:34;;;;;;;1.48;0.43;;;;;;;;;;5074259;28;20104;-83
2022/07/28 13:34:00;;;;;;;2.05;0.60;;;;;;;;;;5073934;28;20024;-83
2022/07/28 13:36:26;;;;;;;3.70;0.70;;;;;;;;;;5073880;28;20028;-84
2022/07/28 13:38:52;;;;;;;2.63;0.60;;;;;;;;;;5073998;28;20021;-83
2022/07/28 13:41:18;;;;;;;9.95;1.10;;;;;;;;;;5073910;28;20021;-84
2022/07/28 13:43:47;;;;;;;1.98;0.43;;;;;;;;;;5073903;28;20045;-83
2022/07/28 13:46:13;;;;;;;1.67;0.60;;;;;;;;;;5073931;28;20036;-82
2022/07/28 13:48:40;;;;;;;2.88;0.60;;;;;;;;;;5072615;28;20032;-80
2022/07/28 13:51:07;;;;;;;5.32;1.38;;;;;;;;;;5068244;28;20021;-84
2022/07/28 13:53:33;;;;;;;5.00;0.63;;;;;;;;;;5065101;28;20032;-79
2022/07/28 13:55:59;;;;;;;2.67;0.60;;;;;;;;;;5061476;28;20051;-83
2022/07/28 13:58:25;;;;;;;2.25;0.47;;;;;;;;;;5057759;28;20024;-82
2022/07/28 14:00:52;;;;;;;1.33;0.50;;;;;;;;;;5073710;28;20024;-82
2022/07/28 14:03:18;;;;;;;2.67;0.52;;;;;;;;;;5073412;28;20082;-81
2022/07/28 14:05:44;;;;;;;2.97;0.60;;;;;;;;;;5076549;28;20490;-82
2022/07/28 14:08:11;;;;;;;1.58;0.50;;;;;;;;;;5075426;28;20060;-82
2022/07/28 14:10:37;;;;;;;1.73;0.60;;;;;;;;;;5067643;28;20024;-85
2022/07/28 14:13:04;;;;;;;2.08;0.60;;;;;;;;;;5071864;28;20109;-81
2022/07/28 14:15:30;;;;;;;3.17;0.60;;;;;;;;;;5071233;28;20498;-84
2022/07/28 14:17:56;;;;;;;2.28;0.57;;;;;;;;;;5068471;28;20032;-84
2022/07/28 14:20:22;;;;;;;3.80;0.65;;;;;;;;;;5069573;28;20021;-81
2022/07/28 14:22:48;;;;;;;1.67;0.73;;;;;;;;;;5072575;28;20016;-81
2022/07/28 14:25:16;;;;;;;1.75;0.63;;;;;;;;;;5066766;28;20036;-84
2022/07/28 14:27:42;;;;;;;2.10;0.70;;;;;;;;;;5062897;28;20021;-82
2022/07/28 14:30:09;;;;;;;2.80;0.50;;;;;;;;;;5066143;28;20067;-80
2022/07/28 14:32:35;;;;;;;5.13;0.82;;;;;;;;;;5059308;28;20027;-80
2022/07/28 14:35:01;;;;;;;3.10;0.70;;;;;;;;;;5066333;28;20043;-82
2022/07/28 14:37:27;;;;;;;3.47;0.75;;;;;;;;;;5065124;28;20021;-81
2022/07/28 14:39:53;;;;;;;4.18;0.60;;;;;;;;;;5068595;28;20012;-82
2022/07/28 14:42:19;;;;;;;11.68;0.65;;;;;;;;;;5067870;28;20055;-81
2022/07/28 14:44:46;;;;;;;4.55;0.60;;;;;;;;;;5066587;28;20067;-84
2022/07/28 14:47:14;;;;;;;9.30;0.60;;;;;;;;;;5071681;28;20017;-83
2022/07/28 14:49:40;;;;;;;2.58;0.75;;;;;;;;;;5067709;28;20017;-84